»·PEaware :: N288WF KFSM-KMDW

N288WF :: KFSM-KMDW

FLIGHT INFORMATION

Flight Status: Arrived
Operator: Privately registered:
United States
More flights under this callsign
Pilot: Drew L. (13237)
Aircraft: BOEING 737-300
(B733)
More flights by this aircraft type
Origin: KFSM Ft Smith Regl
United States
Destination: KMDW Chicago-Midway
United States
More flights between these airports :: More routes between these airports
Route: HRO STL PHEEB ENDEE4
File this flight plan on PilotEdge
Remarks: RMK / SIMBRIEF
Altitude:
(Current/Filed)
35,000ft
Speed:
(Current/Filed)
439kts
Departed: 08-Aug-20 09:44 AM
Arrived: 08-Aug-20 11:03 AM
Distance/Time
Traveled:
495nm/1:19
Distance/Time
To Go:
Arrived

Flight Plot

Page will automatically refresh every two minutes.

Flight plan parsing failed; only flown route is shown


Map Options




Map Legend


Flown Route
Filed Route
Departure Airport
Arrival Airport
Navaid (VOR, NDB)
Fix

Horizontal Profiles

Position Reports

Time Latitude Longitude Heading Altitude Ground
Speed
08-Aug-20 08:32 35.336468 -94.373291 350 453ft 0kts
08-Aug-20 08:33 35.336468 -94.373291 350 453ft 0kts
08-Aug-20 08:34 35.336468 -94.373291 350 453ft 0kts
08-Aug-20 08:35 35.336468 -94.373291 350 453ft 0kts
08-Aug-20 08:36 35.336468 -94.373291 350 453ft 0kts
08-Aug-20 08:37 35.336468 -94.373291 350 453ft 0kts
08-Aug-20 08:38 35.336468 -94.373291 350 453ft 0kts
08-Aug-20 08:39 35.336468 -94.373291 350 453ft 0kts
08-Aug-20 08:40 35.336468 -94.373291 350 453ft 0kts
08-Aug-20 08:41 35.336468 -94.373291 350 453ft 0kts
08-Aug-20 08:42 35.336468 -94.373291 350 453ft 0kts
08-Aug-20 08:43 35.336468 -94.373291 350 453ft 0kts
08-Aug-20 08:44 35.336468 -94.373291 350 453ft 0kts
08-Aug-20 08:45 35.336468 -94.373291 350 453ft 0kts
08-Aug-20 08:46 35.336468 -94.373291 350 453ft 0kts
08-Aug-20 08:47 35.336468 -94.373291 350 453ft 0kts
08-Aug-20 08:48 35.336468 -94.373291 350 453ft 0kts
08-Aug-20 08:49 35.336468 -94.373291 350 453ft 0kts
08-Aug-20 08:50 35.336468 -94.373291 350 453ft 0kts
08-Aug-20 08:51 35.336468 -94.373291 350 453ft 0kts
08-Aug-20 08:52 35.336468 -94.373291 350 453ft 0kts
08-Aug-20 08:53 35.336468 -94.373291 350 453ft 0kts
08-Aug-20 08:54 35.336468 -94.373291 350 453ft 0kts
08-Aug-20 08:55 35.336468 -94.373291 350 453ft 0kts
08-Aug-20 08:57 35.336468 -94.373291 350 453ft 0kts
08-Aug-20 08:58 35.336468 -94.373291 350 453ft 0kts
08-Aug-20 08:59 35.336468 -94.373291 350 453ft 0kts
08-Aug-20 09:00 35.336468 -94.373291 350 453ft 0kts
08-Aug-20 09:01 35.336468 -94.373291 350 453ft 0kts
08-Aug-20 09:02 35.336468 -94.373291 350 453ft 0kts
08-Aug-20 09:03 35.336468 -94.373291 350 453ft 0kts
08-Aug-20 09:04 35.336468 -94.373291 350 453ft 0kts
08-Aug-20 09:05 35.336468 -94.373291 350 453ft 0kts
08-Aug-20 09:06 35.336468 -94.373291 350 453ft 0kts
08-Aug-20 09:07 35.336468 -94.373291 350 453ft 0kts
08-Aug-20 09:08 35.336468 -94.373291 350 453ft 0kts
08-Aug-20 09:09 35.336468 -94.373291 350 453ft 0kts
08-Aug-20 09:10 35.336468 -94.373291 350 453ft 0kts
08-Aug-20 09:11 35.336468 -94.373291 350 453ft 0kts
08-Aug-20 09:12 35.336468 -94.373291 350 453ft 0kts
08-Aug-20 09:13 35.336468 -94.373291 350 453ft 0kts
08-Aug-20 09:13 35.336468 -94.373291 350 453ft 0kts
08-Aug-20 09:15 35.336468 -94.373291 350 453ft 0kts
08-Aug-20 09:16 35.336468 -94.373291 350 453ft 0kts
08-Aug-20 09:16 35.336468 -94.373291 350 453ft 0kts
08-Aug-20 09:17 35.336468 -94.373291 350 453ft 0kts
08-Aug-20 09:19 35.336468 -94.373291 350 453ft 0kts
08-Aug-20 09:19 35.336468 -94.373291 350 453ft 0kts
08-Aug-20 09:20 35.336468 -94.373291 350 453ft 0kts
08-Aug-20 09:21 35.336468 -94.373291 350 453ft 0kts
08-Aug-20 09:22 35.336468 -94.373291 350 453ft 0kts
08-Aug-20 09:23 35.336468 -94.373291 350 453ft 0kts
08-Aug-20 09:24 35.336468 -94.373291 350 453ft 0kts
08-Aug-20 09:25 35.336468 -94.373291 350 453ft 0kts
08-Aug-20 09:26 35.336468 -94.373291 350 453ft 0kts
08-Aug-20 09:27 35.336468 -94.373291 350 453ft 0kts
08-Aug-20 09:28 35.336468 -94.373291 350 453ft 0kts
08-Aug-20 09:29 35.336468 -94.373291 350 453ft 0kts
08-Aug-20 09:30 35.336468 -94.373291 350 453ft 0kts
08-Aug-20 09:31 35.336468 -94.373291 350 453ft 0kts
08-Aug-20 09:32 35.336468 -94.373291 350 453ft 0kts
08-Aug-20 09:33 35.336468 -94.373291 350 453ft 0kts
08-Aug-20 09:34 35.336468 -94.373291 350 453ft 0kts
08-Aug-20 09:35 35.336468 -94.373291 350 453ft 0kts
08-Aug-20 09:36 35.336468 -94.373291 350 453ft 0kts
08-Aug-20 09:37 35.336468 -94.373291 350 453ft 0kts
08-Aug-20 09:38 35.336468 -94.373291 350 453ft 0kts
08-Aug-20 09:39 35.336758 -94.373528 284 454ft 2kts
08-Aug-20 09:40 35.335243 -94.377351 260 459ft 16kts
08-Aug-20 09:41 35.334026 -94.381381 174 465ft 13kts
08-Aug-20 09:42 35.333672 -94.380972 80 463ft 0kts
08-Aug-20 09:43 35.338651 -94.341760 80 1050ft 204kts
08-Aug-20 09:44 35.368678 -94.279595 41 2997ft 241kts
08-Aug-20 09:45 35.422831 -94.219929 40 5318ft 273kts
08-Aug-20 09:46 35.480426 -94.156274 40 7936ft 288kts
08-Aug-20 09:47 35.541545 -94.088574 40 10327ft 311kts
08-Aug-20 09:48 35.613133 -94.009091 41 11813ft 364kts
08-Aug-20 09:49 35.689102 -93.924508 41 14261ft 376kts
08-Aug-20 09:50 35.767771 -93.836689 40 16579ft 388kts
08-Aug-20 09:51 35.848535 -93.746278 40 18690ft 399kts
08-Aug-20 09:52 35.931546 -93.653082 40 20667ft 409kts
08-Aug-20 09:53 36.016278 -93.557670 40 22483ft 418kts
08-Aug-20 09:54 36.103111 -93.459588 40 24147ft 427kts
08-Aug-20 09:55 36.191426 -93.359787 40 25675ft 435kts
08-Aug-20 09:56 36.281388 -93.257280 40 27091ft 442kts
08-Aug-20 09:57 36.373787 -93.156436 37 28412ft 448kts
08-Aug-20 09:58 36.470023 -93.057410 36 30231ft 439kts
08-Aug-20 09:59 36.563174 -92.961368 35 31714ft 432kts
08-Aug-20 10:00 36.655315 -92.866058 34 33029ft 426kts
08-Aug-20 10:01 36.746396 -92.771552 34 34067ft 422kts
08-Aug-20 10:02 36.836856 -92.677390 34 34912ft 421kts
08-Aug-20 10:03 36.927416 -92.582837 34 35233ft 426kts
08-Aug-20 10:04 37.019288 -92.486755 34 35234ft 433kts
08-Aug-20 10:05 37.113146 -92.387968 35 35215ft 448kts
08-Aug-20 10:06 37.209677 -92.286159 36 35241ft 452kts
08-Aug-20 10:07 37.305993 -92.184139 36 35186ft 452kts
08-Aug-20 10:08 37.402824 -92.081304 36 35195ft 452kts
08-Aug-20 10:09 37.499102 -91.978697 36 35191ft 452kts
08-Aug-20 10:10 37.595529 -91.875573 36 35197ft 452kts
08-Aug-20 10:11 37.691997 -91.772039 36 35206ft 452kts
08-Aug-20 10:12 37.788295 -91.668321 36 35217ft 451kts
08-Aug-20 10:13 37.883716 -91.565159 37 35213ft 437kts
08-Aug-20 10:14 37.976616 -91.464425 37 35193ft 439kts
08-Aug-20 10:15 38.070017 -91.362760 37 35198ft 439kts
08-Aug-20 10:16 38.163807 -91.260307 38 35203ft 439kts
08-Aug-20 10:17 38.256730 -91.158481 38 35204ft 439kts
08-Aug-20 10:18 38.349452 -91.056502 37 35195ft 438kts
08-Aug-20 10:19 38.441373 -90.955050 37 35194ft 436kts
08-Aug-20 10:20 38.533307 -90.853232 37 35192ft 437kts
08-Aug-20 10:21 38.625019 -90.751299 37 35193ft 437kts
08-Aug-20 10:22 38.716803 -90.648929 37 35197ft 437kts
08-Aug-20 10:23 38.808879 -90.545863 37 35201ft 437kts
08-Aug-20 10:24 38.902969 -90.447309 29 35197ft 434kts
08-Aug-20 10:25 39.005041 -90.361161 28 35194ft 446kts
08-Aug-20 10:26 39.110158 -90.271909 28 35194ft 454kts
08-Aug-20 10:27 39.215243 -90.182860 29 35206ft 451kts
08-Aug-20 10:28 39.319817 -90.093777 28 35208ft 451kts
08-Aug-20 10:29 39.424690 -90.004194 28 35197ft 450kts
08-Aug-20 10:30 39.528821 -89.914916 28 35185ft 450kts
08-Aug-20 10:31 39.633010 -89.825155 28 35199ft 450kts
08-Aug-20 10:32 39.737180 -89.735124 28 35200ft 451kts
08-Aug-20 10:33 39.841502 -89.644638 28 35016ft 454kts
08-Aug-20 10:34 39.945581 -89.554007 29 33316ft 450kts
08-Aug-20 10:35 40.050405 -89.462412 29 31536ft 457kts
08-Aug-20 10:36 40.156721 -89.369314 29 29711ft 461kts
08-Aug-20 10:37 40.263271 -89.275211 32 27914ft 467kts
08-Aug-20 10:38 40.368022 -89.173006 33 26129ft 472kts
08-Aug-20 10:39 40.480952 -89.090353 22 25181ft 464kts
08-Aug-20 10:40 40.597001 -89.015936 23 25204ft 465kts
08-Aug-20 10:41 40.711194 -88.942228 23 23796ft 447kts
08-Aug-20 10:42 40.820095 -88.871701 23 21355ft 427kts
08-Aug-20 10:43 40.924175 -88.803652 23 18943ft 410kts
08-Aug-20 10:44 41.024326 -88.738399 23 16550ft 396kts
08-Aug-20 10:45 41.121434 -88.675056 24 14121ft 385kts
08-Aug-20 10:46 41.214503 -88.614003 24 12512ft 346kts
08-Aug-20 10:47 41.293628 -88.562135 24 11560ft 304kts
08-Aug-20 10:48 41.368698 -88.512626 29 9664ft 299kts
08-Aug-20 10:49 41.422692 -88.429566 50 7825ft 295kts
08-Aug-20 10:50 41.473920 -88.345210 51 6198ft 287kts
08-Aug-20 10:51 41.521072 -88.260291 58 6005ft 287kts
08-Aug-20 10:52 41.563388 -88.168580 58 5750ft 289kts
08-Aug-20 10:53 41.605118 -88.078407 59 4544ft 280kts
08-Aug-20 10:54 41.646037 -87.989777 59 3985ft 279kts
08-Aug-20 10:55 41.687218 -87.899987 59 4009ft 283kts
08-Aug-20 10:56 41.725680 -87.815891 59 4062ft 240kts
08-Aug-20 10:58 41.755224 -87.736904 89 4068ft 211kts
08-Aug-20 10:59 41.769309 -87.670802 40 3735ft 189kts
08-Aug-20 11:00 41.809405 -87.661883 289 2700ft 149kts
08-Aug-20 11:01 41.812459 -87.712819 236 1472ft 131kts
08-Aug-20 11:02 41.787902 -87.748215 221 628ft 124kts
08-Aug-20 11:03 41.781928 -87.754188 92 627ft 0kts
08-Aug-20 11:04 41.781276 -87.754637 223 627ft 11kts
08-Aug-20 11:05 41.779398 -87.755967 167 627ft 13kts
08-Aug-20 11:06 41.779198 -87.754375 356 627ft 0kts
08-Aug-20 11:07 41.779198 -87.754375 356 627ft 0kts
08-Aug-20 11:08 41.779198 -87.754375 356 627ft 0kts
08-Aug-20 11:09 41.779198 -87.754375 356 627ft 0kts

Navigation Log

Ident Type
Flight plan parsing failed, navigation log unavailable